createdAt,value
2022-09-29T00:00:23.501Z,4.97
2022-09-29T00:02:50.756Z,7.28
2022-09-29T00:05:17.707Z,6.38
2022-09-29T00:07:44.399Z,8.25
2022-09-29T00:10:11.272Z,11.68
2022-09-29T00:12:38.076Z,6.18
2022-09-29T00:15:05.621Z,9.05
2022-09-29T00:17:32.420Z,7.13
2022-09-29T00:19:59.187Z,9.15
2022-09-29T00:22:25.839Z,6.45
2022-09-29T00:24:52.554Z,6.13
2022-09-29T00:27:19.695Z,7.90
2022-09-29T00:29:47.498Z,6.95
2022-09-29T00:32:14.164Z,6.68
2022-09-29T00:34:41.858Z,5.68
2022-09-29T00:37:08.632Z,9.32
2022-09-29T00:39:35.316Z,6.70
2022-09-29T00:42:02.050Z,8.48
2022-09-29T00:45:02.321Z,8.82
2022-09-29T00:47:30.174Z,7.72
2022-09-29T00:50:06.623Z,5.72
2022-09-29T00:52:37.344Z,4.85
2022-09-29T00:55:26.860Z,8.50
2022-09-29T00:57:59.221Z,7.07
2022-09-29T01:00:26.294Z,7.38
2022-09-29T01:02:58.078Z,6.55
2022-09-29T01:05:36.288Z,10.13
2022-09-29T01:08:09.291Z,5.40
2022-09-29T01:10:36.403Z,9.32
2022-09-29T01:13:03.277Z,4.32
2022-09-29T01:15:30.476Z,10.98
2022-09-29T01:17:57.348Z,7.05
2022-09-29T01:20:25.126Z,10.45
2022-09-29T01:23:46.181Z,8.75
2022-09-29T01:26:31.199Z,6.47
2022-09-29T01:29:22.473Z,5.35
2022-09-29T01:32:01.705Z,8.48
2022-09-29T01:34:53.028Z,5.32
2022-09-29T01:37:35.841Z,9.52
2022-09-29T01:40:05.755Z,6.10
2022-09-29T01:43:01.547Z,6.55
2022-09-29T01:45:29.843Z,6.10
2022-09-29T01:48:07.338Z,7.28
2022-09-29T01:50:46.418Z,7.68
2022-09-29T01:53:23.572Z,8.27
2022-09-29T01:55:53.465Z,6.88
2022-09-29T01:58:24.863Z,9.27
2022-09-29T02:00:55.055Z,8.20
2022-09-29T02:03:28.129Z,9.38
2022-09-29T02:06:09.124Z,7.10
2022-09-29T02:08:43.469Z,10.18
2022-09-29T02:11:14.901Z,9.75
2022-09-29T02:13:49.684Z,6.25
2022-09-29T02:16:19.595Z,8.88
2022-09-29T02:18:58.345Z,14.45
2022-09-29T02:21:26.371Z,8.77
2022-09-29T02:23:53.078Z,9.00
2022-09-29T02:26:20.104Z,9.57
2022-09-29T02:28:47.767Z,7.28
2022-09-29T02:31:14.704Z,10.07
2022-09-29T02:33:41.519Z,11.93
2022-09-29T02:36:33.398Z,6.25
2022-09-29T02:39:09.190Z,9.07
2022-09-29T02:41:49.145Z,9.85
2022-09-29T02:44:29.911Z,6.45
2022-09-29T02:47:17.503Z,5.68
2022-09-29T02:50:02.420Z,8.57
2022-09-29T02:52:56.771Z,5.88
2022-09-29T02:55:32.249Z,8.13
2022-09-29T02:58:07.916Z,6.20
2022-09-29T03:00:34.754Z,5.93
2022-09-29T03:03:01.377Z,3.80
2022-09-29T03:05:28.205Z,5.47
2022-09-29T03:07:54.900Z,5.22
2022-09-29T03:10:22.158Z,5.85
2022-09-29T03:12:48.851Z,5.20
2022-09-29T03:15:15.623Z,8.55
2022-09-29T03:17:42.299Z,6.43
2022-09-29T03:20:09.613Z,6.53
2022-09-29T03:22:36.263Z,5.15
2022-09-29T03:25:06.270Z,6.30
2022-09-29T03:27:33.988Z,4.45
2022-09-29T03:30:00.635Z,6.00
2022-09-29T03:32:27.324Z,9.93
2022-09-29T03:34:54.012Z,12.40
2022-09-29T03:37:20.656Z,4.30
2022-09-29T03:39:47.618Z,10.02
2022-09-29T03:42:14.335Z,7.63
2022-09-29T03:44:41.243Z,8.43
2022-09-29T03:47:07.931Z,5.47
2022-09-29T03:49:34.680Z,5.50
2022-09-29T03:52:02.260Z,8.88
2022-09-29T03:54:29.040Z,4.55
2022-09-29T03:56:55.752Z,6.72
2022-09-29T03:59:22.682Z,7.38
2022-09-29T04:01:49.442Z,5.95
2022-09-29T04:04:16.181Z,8.05
2022-09-29T04:06:42.796Z,6.10
2022-09-29T04:09:09.591Z,7.22
2022-09-29T04:11:36.312Z,7.30
2022-09-29T04:14:03.449Z,7.10
2022-09-29T04:16:30.164Z,6.88
2022-09-29T04:18:57.182Z,9.60
2022-09-29T04:21:24.604Z,7.43
2022-09-29T04:23:51.304Z,5.40
2022-09-29T04:26:19.509Z,7.78
2022-09-29T04:28:46.497Z,8.65
2022-09-29T04:31:13.226Z,5.93
2022-09-29T04:33:40.532Z,5.93
2022-09-29T04:36:07.449Z,9.05
2022-09-29T04:38:34.395Z,10.18
2022-09-29T04:41:01.187Z,11.48
2022-09-29T04:43:28.130Z,9.70
2022-09-29T04:46:04.769Z,7.75
2022-09-29T04:48:34.998Z,8.20
2022-09-29T04:51:02.754Z,7.70
2022-09-29T04:53:29.505Z,7.00
2022-09-29T04:55:56.253Z,5.70
2022-09-29T04:58:23.006Z,10.10
2022-09-29T05:00:49.756Z,9.05
2022-09-29T05:03:16.449Z,14.38
2022-09-29T05:05:43.100Z,11.52
2022-09-29T05:08:09.809Z,8.50
2022-09-29T05:10:36.627Z,9.15
2022-09-29T05:13:03.658Z,5.18
2022-09-29T05:15:30.450Z,6.35
2022-09-29T05:17:57.173Z,9.85
2022-09-29T05:20:23.828Z,12.00
2022-09-29T05:22:50.525Z,12.20
2022-09-29T05:25:17.316Z,10.98
2022-09-29T05:27:44.009Z,11.55
2022-09-29T05:30:10.958Z,10.02
2022-09-29T05:32:37.670Z,7.72
2022-09-29T05:35:04.667Z,8.88
2022-09-29T05:37:31.300Z,10.70
2022-09-29T05:39:57.955Z,10.30
2022-09-29T05:42:25.713Z,9.10
2022-09-29T05:44:52.467Z,9.02
2022-09-29T05:47:19.788Z,7.93
2022-09-29T05:49:46.534Z,7.82
2022-09-29T05:52:13.193Z,8.25
2022-09-29T05:54:39.848Z,7.38
2022-09-29T05:57:06.982Z,6.97
2022-09-29T05:59:33.664Z,8.35
2022-09-29T06:02:00.425Z,9.52
2022-09-29T06:04:27.116Z,7.93
2022-09-29T06:06:55.446Z,7.93
2022-09-29T06:09:22.374Z,11.05
2022-09-29T06:11:49.307Z,9.63
2022-09-29T06:14:15.974Z,6.32
2022-09-29T06:16:42.841Z,10.20
2022-09-29T06:19:09.673Z,9.50
2022-09-29T06:21:37.850Z,7.47
2022-09-29T06:24:04.784Z,7.13
2022-09-29T06:26:31.475Z,12.30
2022-09-29T06:28:58.738Z,9.10
2022-09-29T06:31:27.698Z,11.73
2022-09-29T06:34:00.584Z,12.88
2022-09-29T06:39:22.668Z,6.90
2022-09-29T06:41:53.587Z,7.80
2022-09-29T06:44:21.415Z,8.15
2022-09-29T06:46:48.720Z,7.53
2022-09-29T06:49:15.615Z,10.77
2022-09-29T06:51:46.386Z,7.53
2022-09-29T06:54:17.892Z,9.90
2022-09-29T06:56:48.872Z,14.32
2022-09-29T06:59:15.795Z,8.18
2022-09-29T07:01:42.559Z,12.48
2022-09-29T07:04:09.542Z,11.10
2022-09-29T07:06:37.143Z,12.02
2022-09-29T07:09:03.842Z,7.88
2022-09-29T07:11:30.630Z,9.27
2022-09-29T07:13:57.361Z,9.68
2022-09-29T07:16:24.576Z,10.73
2022-09-29T07:18:51.895Z,8.73
2022-09-29T07:21:19.122Z,10.15
2022-09-29T07:23:46.997Z,7.90
2022-09-29T07:26:16.809Z,6.03
2022-09-29T07:28:44.459Z,9.82
2022-09-29T07:31:15.576Z,6.38
2022-09-29T07:33:43.822Z,5.90
2022-09-29T07:36:10.787Z,7.35
2022-09-29T07:38:37.427Z,7.70
2022-09-29T07:41:06.401Z,6.57
2022-09-29T07:43:33.198Z,9.90
2022-09-29T07:46:03.091Z,8.57
2022-09-29T07:48:31.991Z,8.02
2022-09-29T07:51:07.301Z,7.75
2022-09-29T07:53:34.719Z,6.40
2022-09-29T07:56:06.465Z,5.60
2022-09-29T07:58:33.853Z,7.63
2022-09-29T08:01:01.860Z,6.45
2022-09-29T08:03:30.264Z,7.07
2022-09-29T08:05:57.939Z,7.15
2022-09-29T08:08:25.490Z,6.68
2022-09-29T08:10:53.873Z,6.18
2022-09-29T08:13:20.949Z,5.78
2022-09-29T08:15:47.624Z,4.97
2022-09-29T08:18:14.465Z,5.60
2022-09-29T08:20:41.120Z,7.68
2022-09-29T08:23:07.805Z,6.32
2022-09-29T08:25:36.327Z,6.07
2022-09-29T08:28:03.321Z,6.47
2022-09-29T08:30:30.253Z,6.57
2022-09-29T08:32:56.974Z,7.63
2022-09-29T08:35:23.803Z,5.13
2022-09-29T08:37:50.520Z,11.63
2022-09-29T08:40:18.099Z,8.38
2022-09-29T08:43:10.112Z,6.25
2022-09-29T08:45:52.543Z,7.18
2022-09-29T08:48:27.531Z,7.40
2022-09-29T08:51:03.758Z,5.95
2022-09-29T08:53:33.167Z,10.65
2022-09-29T08:56:04.514Z,8.73
2022-09-29T08:58:32.172Z,10.10
2022-09-29T09:01:09.546Z,8.25
2022-09-29T09:03:53.911Z,4.30
2022-09-29T09:06:48.712Z,4.32
2022-09-29T09:09:33.641Z,7.15
2022-09-29T09:12:00.258Z,4.93
2022-09-29T09:14:45.648Z,4.53
2022-09-29T09:17:16.175Z,3.65
2022-09-29T09:19:55.450Z,6.18
2022-09-29T09:22:28.536Z,4.65
2022-09-29T09:24:58.342Z,4.43
2022-09-29T09:27:32.030Z,7.43
2022-09-29T09:30:05.255Z,7.50
2022-09-29T09:32:37.963Z,3.35
2022-09-29T09:35:23.960Z,6.57
2022-09-29T09:37:53.839Z,4.97
2022-09-29T09:40:24.703Z,3.17
2022-09-29T09:43:00.454Z,6.55
2022-09-29T09:45:38.289Z,4.65
2022-09-29T09:48:16.472Z,2.85
2022-09-29T09:50:46.884Z,5.75
2022-09-29T09:53:28.949Z,4.63
2022-09-29T09:56:16.963Z,4.93
2022-09-29T09:59:17.221Z,2.97
2022-09-29T10:01:43.994Z,7.63
2022-09-29T10:04:12.989Z,5.68
2022-09-29T10:06:39.896Z,4.72
2022-09-29T10:09:06.718Z,5.50
2022-09-29T10:11:33.703Z,4.82
2022-09-29T10:14:15.278Z,7.30
2022-09-29T10:16:45.062Z,4.70
2022-09-29T10:19:12.097Z,4.38
2022-09-29T10:21:44.037Z,7.25
2022-09-29T10:24:27.919Z,7.00
2022-09-29T10:26:57.678Z,8.85
2022-09-29T10:29:38.286Z,8.20
2022-09-29T10:32:12.594Z,7.28
2022-09-29T10:34:42.105Z,4.47
2022-09-29T10:37:36.522Z,5.72
2022-09-29T10:40:15.121Z,4.47
2022-09-29T10:42:46.670Z,6.95
2022-09-29T10:45:18.866Z,5.80
2022-09-29T10:48:07.027Z,8.20
2022-09-29T10:50:56.840Z,3.15
2022-09-29T10:53:25.852Z,7.53
2022-09-29T10:55:55.345Z,8.05
2022-09-29T10:58:44.523Z,4.05
2022-09-29T11:01:16.789Z,6.43
2022-09-29T11:04:03.510Z,3.78
2022-09-29T11:06:42.985Z,6.43
2022-09-29T11:09:13.507Z,3.85
2022-09-29T11:11:57.884Z,6.65
2022-09-29T11:14:38.022Z,3.63
2022-09-29T11:17:23.738Z,7.97
2022-09-29T11:19:52.043Z,3.60
2022-09-29T11:22:40.599Z,6.68
2022-09-29T11:25:16.898Z,5.65
2022-09-29T11:27:55.822Z,5.55
2022-09-29T11:30:31.498Z,3.35
2022-09-29T11:33:27.291Z,10.52
2022-09-29T11:35:58.931Z,3.05
2022-09-29T11:38:31.720Z,4.55
2022-09-29T11:41:18.442Z,5.35
2022-09-29T11:43:56.069Z,5.82
2022-09-29T11:46:44.318Z,3.75
2022-09-29T11:49:39.699Z,4.32
2022-09-29T11:52:47.574Z,3.55
2022-09-29T11:55:33.374Z,3.85
2022-09-29T11:58:22.577Z,6.50
2022-09-29T12:01:02.156Z,7.63
2022-09-29T12:03:37.110Z,3.90
2022-09-29T12:06:15.787Z,6.78
2022-09-29T12:09:01.149Z,4.18
2022-09-29T12:12:24.614Z,4.50
2022-09-29T12:15:15.756Z,4.75
2022-09-29T12:17:47.685Z,2.20
2022-09-29T12:20:34.512Z,3.78
2022-09-29T12:23:05.186Z,3.95
2022-09-29T12:25:35.868Z,4.50
2022-09-29T12:28:24.399Z,6.40
2022-09-29T12:30:56.334Z,5.10
2022-09-29T12:33:33.848Z,3.65
2022-09-29T12:36:43.646Z,8.70
2022-09-29T12:39:21.493Z,3.67
2022-09-29T12:41:53.950Z,4.45
2022-09-29T12:47:41.441Z,4.50
2022-09-29T12:50:27.129Z,5.65
2022-09-29T12:53:17.572Z,2.88
2022-09-29T12:55:58.760Z,3.83
2022-09-29T12:58:55.855Z,3.05
2022-09-29T13:01:27.227Z,4.35
2022-09-29T13:04:06.023Z,4.57
2022-09-29T13:07:03.380Z,7.18
2022-09-29T13:09:48.373Z,9.43
2022-09-29T13:12:29.919Z,3.55
2022-09-29T13:15:14.386Z,2.00
2022-09-29T13:17:59.637Z,5.30
2022-09-29T13:20:43.879Z,3.58
2022-09-29T13:23:41.104Z,3.38
2022-09-29T13:26:41.004Z,4.10
2022-09-29T13:29:24.330Z,5.60
2022-09-29T13:31:52.162Z,4.70
2022-09-29T13:34:27.245Z,3.30
2022-09-29T13:36:54.508Z,4.95
2022-09-29T13:39:27.014Z,2.90
2022-09-29T13:44:27.330Z,4.10
2022-09-29T13:46:56.140Z,4.63
2022-09-29T13:49:25.538Z,3.97
2022-09-29T13:52:11.772Z,6.75
2022-09-29T13:54:40.289Z,4.70
2022-09-29T13:57:12.720Z,3.38
2022-09-29T13:59:45.492Z,2.80
2022-09-29T14:02:19.497Z,2.83
2022-09-29T14:04:49.231Z,3.33
2022-09-29T14:07:37.412Z,5.15
2022-09-29T14:10:06.850Z,4.88
2022-09-29T14:12:34.517Z,3.28
2022-09-29T14:15:01.958Z,4.55
2022-09-29T14:17:37.754Z,3.90
2022-09-29T14:20:19.370Z,4.15
2022-09-29T14:22:46.146Z,6.65
2022-09-29T14:25:14.032Z,3.28
2022-09-29T14:27:49.248Z,2.50
2022-09-29T14:30:22.898Z,6.03
2022-09-29T14:33:05.240Z,3.90
2022-09-29T14:35:44.068Z,1.58
2022-09-29T14:38:21.180Z,9.10
2022-09-29T14:41:13.245Z,3.28
2022-09-29T14:43:44.114Z,3.67
2022-09-29T14:46:55.058Z,4.95
2022-09-29T14:49:53.594Z,4.97
2022-09-29T14:52:42.236Z,2.88
2022-09-29T14:55:24.246Z,7.80
2022-09-29T14:58:32.629Z,3.92
2022-09-29T15:01:22.953Z,6.60
2022-09-29T15:03:51.535Z,1.90
2022-09-29T15:06:24.711Z,1.92
2022-09-29T15:08:57.747Z,2.30
2022-09-29T15:11:38.259Z,2.40
2022-09-29T15:14:27.979Z,4.25
2022-09-29T15:17:06.769Z,2.80
2022-09-29T15:19:55.532Z,3.53
2022-09-29T15:22:42.087Z,5.13
2022-09-29T15:25:21.644Z,2.35
2022-09-29T15:27:50.998Z,5.05
2022-09-29T15:30:19.656Z,3.92
2022-09-29T15:32:48.422Z,2.33
2022-09-29T15:35:23.920Z,2.58
2022-09-29T15:37:50.574Z,3.00
2022-09-29T15:40:20.800Z,1.58
2022-09-29T15:42:48.216Z,5.78
2022-09-29T15:45:28.467Z,3.13
2022-09-29T15:48:03.726Z,3.08
2022-09-29T15:50:32.972Z,3.45
2022-09-29T15:53:03.572Z,3.85
2022-09-29T15:55:31.712Z,2.60
2022-09-29T15:57:59.112Z,2.17
2022-09-29T16:00:27.264Z,6.88
2022-09-29T16:03:19.911Z,2.80
2022-09-29T16:05:58.492Z,3.65
2022-09-29T16:08:28.869Z,4.43
2022-09-29T16:11:08.111Z,4.97
2022-09-29T16:13:37.511Z,3.40
2022-09-29T16:16:10.567Z,5.70
2022-09-29T16:18:45.593Z,3.60
2022-09-29T16:21:16.351Z,2.28
2022-09-29T16:23:48.038Z,3.13
2022-09-29T16:26:20.778Z,1.70
2022-09-29T16:29:12.753Z,4.00
2022-09-29T16:31:41.143Z,6.75
2022-09-29T16:34:23.166Z,2.22
2022-09-29T16:36:54.685Z,3.30
2022-09-29T16:39:27.597Z,4.15
2022-09-29T16:41:56.126Z,3.58
2022-09-29T16:44:42.853Z,4.93
2022-09-29T16:47:30.361Z,4.30
2022-09-29T16:49:59.939Z,3.65
2022-09-29T16:52:35.092Z,2.78
2022-09-29T16:55:29.745Z,1.77
2022-09-29T16:58:08.406Z,4.53
2022-09-29T17:00:36.605Z,4.70
2022-09-29T17:03:05.746Z,3.25
2022-09-29T17:05:43.714Z,4.63
2022-09-29T17:08:30.812Z,4.78
2022-09-29T17:10:57.745Z,4.57
2022-09-29T17:13:24.981Z,9.90
2022-09-29T17:15:52.835Z,7.75
2022-09-29T17:18:20.860Z,6.55
2022-09-29T17:20:47.676Z,5.38
2022-09-29T17:23:14.527Z,4.75
2022-09-29T17:25:43.702Z,4.85
2022-09-29T17:28:16.574Z,5.63
2022-09-29T17:30:45.668Z,3.40
2022-09-29T17:33:15.388Z,5.43
2022-09-29T17:35:55.262Z,6.90
2022-09-29T17:38:22.369Z,7.05
2022-09-29T17:41:03.687Z,4.55
2022-09-29T17:43:33.806Z,4.25
2022-09-29T17:46:01.647Z,3.50
2022-09-29T17:48:29.750Z,4.72
2022-09-29T17:50:59.225Z,6.80
2022-09-29T17:53:26.496Z,7.80
2022-09-29T17:55:54.649Z,5.53
2022-09-29T17:58:22.912Z,6.25
2022-09-29T18:00:52.366Z,4.20
2022-09-29T18:03:20.345Z,3.10
2022-09-29T18:05:49.243Z,3.28
2022-09-29T18:08:19.363Z,5.00
2022-09-29T18:10:56.696Z,2.15
2022-09-29T18:13:24.862Z,3.85
2022-09-29T18:15:51.600Z,5.10
2022-09-29T18:18:20.733Z,4.10
2022-09-29T18:20:48.194Z,3.33
2022-09-29T18:23:17.757Z,4.45
2022-09-29T18:25:47.841Z,3.90
2022-09-29T18:28:15.812Z,4.80
2022-09-29T18:30:44.367Z,3.50
2022-09-29T18:33:16.483Z,6.45
2022-09-29T18:35:51.484Z,3.63
2022-09-29T18:38:18.361Z,7.90
2022-09-29T18:40:47.248Z,10.35
2022-09-29T18:43:14.240Z,6.40
2022-09-29T18:45:44.183Z,5.72
2022-09-29T18:48:12.444Z,4.50
2022-09-29T18:50:46.484Z,6.25
2022-09-29T18:53:16.356Z,5.00
2022-09-29T18:55:43.604Z,5.10
2022-09-29T18:58:13.919Z,7.40
2022-09-29T19:00:43.627Z,4.25
2022-09-29T19:03:10.257Z,7.50
2022-09-29T19:05:41.074Z,8.43
2022-09-29T19:08:08.230Z,8.82
2022-09-29T19:10:36.580Z,8.63
2022-09-29T19:13:08.299Z,9.07
2022-09-29T19:15:39.225Z,5.20
2022-09-29T19:18:07.864Z,5.95
2022-09-29T19:20:35.163Z,7.70
2022-09-29T19:23:05.648Z,8.52
2022-09-29T19:25:48.791Z,7.97
2022-09-29T19:28:28.852Z,7.93
2022-09-29T19:31:15.198Z,12.50
2022-09-29T19:33:48.491Z,9.80
2022-09-29T19:36:25.998Z,8.63
2022-09-29T19:38:58.818Z,9.27
2022-09-29T19:41:46.094Z,6.78
2022-09-29T19:44:21.129Z,7.20
2022-09-29T19:46:59.645Z,6.82
2022-09-29T19:49:40.876Z,5.85
2022-09-29T19:52:14.067Z,8.38
2022-09-29T19:54:46.342Z,10.32
2022-09-29T19:57:16.409Z,7.03
2022-09-29T20:00:09.370Z,8.25
2022-09-29T20:02:45.158Z,7.07
2022-09-29T20:05:17.236Z,14.10
2022-09-29T20:07:55.600Z,8.88
2022-09-29T20:10:43.950Z,5.63
2022-09-29T20:13:26.765Z,5.65
2022-09-29T20:18:51.990Z,7.72
2022-09-29T20:21:29.538Z,8.50
2022-09-29T20:24:02.423Z,14.48
2022-09-29T20:26:35.821Z,10.95
2022-09-29T20:29:12.294Z,11.57
2022-09-29T20:31:42.596Z,10.32
2022-09-29T20:34:14.666Z,10.77
2022-09-29T20:36:54.825Z,10.73
2022-09-29T20:39:32.077Z,8.93
2022-09-29T20:42:09.398Z,9.40
2022-09-29T20:44:45.271Z,11.50
2022-09-29T20:47:29.678Z,12.50
2022-09-29T20:49:59.532Z,12.00
2022-09-29T20:52:28.946Z,9.90
2022-09-29T20:55:01.259Z,13.07
2022-09-29T20:57:45.380Z,11.95
2022-09-29T21:00:33.916Z,10.32
2022-09-29T21:03:41.814Z,10.13
2022-09-29T21:08:58.940Z,10.07
2022-09-29T21:11:56.439Z,10.90
2022-09-29T21:14:31.257Z,10.05
2022-09-29T21:17:06.804Z,11.25
2022-09-29T21:19:49.881Z,10.00
2022-09-29T21:22:27.786Z,10.75
2022-09-29T21:24:59.058Z,11.45
2022-09-29T21:27:31.343Z,10.32
2022-09-29T21:30:00.455Z,12.25
2022-09-29T21:32:27.115Z,10.75
2022-09-29T21:34:53.749Z,12.57
2022-09-29T21:37:20.641Z,11.18
2022-09-29T21:39:47.348Z,12.20
2022-09-29T21:42:14.418Z,12.30
2022-09-29T21:44:41.011Z,10.20
2022-09-29T21:47:07.714Z,13.20
2022-09-29T21:49:34.376Z,13.73
2022-09-29T21:52:02.170Z,11.18
2022-09-29T21:54:30.367Z,11.82
2022-09-29T21:56:57.187Z,11.80
2022-09-29T21:59:27.240Z,12.57
2022-09-29T22:01:56.906Z,10.73
2022-09-29T22:04:24.374Z,12.90
2022-09-29T22:06:51.266Z,8.98
2022-09-29T22:09:20.706Z,10.90
2022-09-29T22:11:50.361Z,11.60
2022-09-29T22:14:17.881Z,11.98
2022-09-29T22:16:44.755Z,8.15
2022-09-29T22:19:22.910Z,13.20
2022-09-29T22:21:50.334Z,13.23
2022-09-29T22:24:16.970Z,10.63
2022-09-29T22:26:43.550Z,12.43
2022-09-29T22:29:10.317Z,11.13
2022-09-29T22:31:39.209Z,8.75
2022-09-29T22:34:05.989Z,11.50
2022-09-29T22:36:34.360Z,11.88
2022-09-29T22:39:01.918Z,13.80
2022-09-29T22:41:29.273Z,9.32
2022-09-29T22:43:59.062Z,10.07
2022-09-29T22:46:27.469Z,11.48
2022-09-29T22:48:54.382Z,11.57
2022-09-29T22:51:21.370Z,7.05
2022-09-29T22:53:51.790Z,11.23
2022-09-29T22:56:20.923Z,7.75
2022-09-29T22:58:49.298Z,11.75
2022-09-29T23:01:17.649Z,8.68
2022-09-29T23:03:45.561Z,9.20
2022-09-29T23:06:13.398Z,8.75
2022-09-29T23:08:40.246Z,9.25
2022-09-29T23:11:10.189Z,9.98
2022-09-29T23:13:37.637Z,10.35
2022-09-29T23:16:10.896Z,11.15
2022-09-29T23:18:44.081Z,10.35
2022-09-29T23:21:13.714Z,8.15
2022-09-29T23:23:40.554Z,9.35
2022-09-29T23:26:07.187Z,10.10
2022-09-29T23:28:33.827Z,15.10
2022-09-29T23:31:05.564Z,8.02
2022-09-29T23:33:32.757Z,7.17
2022-09-29T23:36:12.168Z,11.48
2022-09-29T23:38:58.843Z,11.85
2022-09-29T23:41:27.425Z,10.02
2022-09-29T23:43:58.259Z,11.35
2022-09-29T23:46:26.519Z,9.45
2022-09-29T23:48:53.312Z,10.07
2022-09-29T23:51:19.988Z,13.50
2022-09-29T23:53:46.809Z,8.10
2022-09-29T23:56:13.836Z,9.63
2022-09-29T23:58:40.514Z,9.40
